Terminal Aerodrome Forecast
Issued by NWS Pittsburgh, PA

Current Version | Previous Version | Text Only | Print | Product List | Glossary Off
Versions: 1 2 3 4 5 6 7 8 9 10 11 12 13 14 15 16 17 18 19 20 21 22 23 24 25 26 27 28 29 30 31 32 33 34

000
FTUS41 KPBZ 150500
TAFPIT
TAF
KPIT 150537Z 1506/1612 24003KT 2SM -DZ BR OVC005
     FM151500 13005KT 5SM HZ BKN015
     FM160200 09004KT P6SM BKN250
     FM160800 14007KT P6SM VCSH BKN035 OVC050=

USA.gov is the U.S. government's official web portal to all federal, state and local government web resources and services.